Briefing drone pour Guerigny

Rechercher une autre localisation

Conditions de vol :


Nous sommes le : Lundi 04 juillet 2022
Il est 07:02 UTC (09:02 LT)

Lever de soleil : 03:31 UTC (05:31 LT)
Coucher de soleil : 20:11 UTC (22:11 LT)


Warning: min(): Array must contain at least one element in /homepages/6/d509196549/htdocs/briefdrone/includes/function/metar/metar.php on line 1265

Météo

L'essentiel des conditions de vol

VIGILANCE MÉTÉO FRANCE - Nièvre (58)
Pas de vigilances particulieres
CARTES DES FRONTS
METAR de LFQG
LFQG 040630Z AUTO VRB03KT 9999 ///TCU 17/13 Q1021

Date d'émission: 04/07/2022
Heure d'émission: 06:30 UTC
Vent: Variable 3 KT (6 km/h)
Visibilité horizontale: > 10 km
Température: 17 °C
Point de rosée: 13 °C
Humidité: 77%
Pression (QNH): 1021 hPa
Prévision 24h pour Nevers (7 km)
Vent : 11° pour 1 KT (3 km/h)
Temperature Maxi: 12 °C
Temperature Min: 12 °C
Humidité : 86%
Condition : Ciel dégagé



Warning: count(): Parameter must be an array or an object that implements Countable in /homepages/6/d509196549/htdocs/droneoxygene/briefing.php on line 743
WEBCAM POUR GUERIGNY

Réglementation

Voler en sécurité

CARTES AERONAUTIQUE 1/500.000
CARTES VAC (LFQG)
SUP AIP




Chargement des AIP...
NOTAM (GUERIGNY + Terrain à proximité / FIR )




Chargement des NOTAMS...
CONTACT PREFECTURE 58


Avertissement : Les données mises à disposition sont indicatives. Oxygène Drone ne pourra être tenu responsable de dégâts causés aux biens et aux personnes.